sensor_id;sensor_type;location;lat;lon;timestamp;pressure;altitude;pressure_sealevel;temperature
18713;BMP280;9485;49.386;8.674;2022-10-16T00:01:20;100177.75;;;18.87
18713;BMP280;9485;49.386;8.674;2022-10-16T00:06:40;100190.94;;;18.90
18713;BMP280;9485;49.386;8.674;2022-10-16T00:12:01;100188.63;;;18.88
18713;BMP280;9485;49.386;8.674;2022-10-16T00:17:24;100203.94;;;18.91
18713;BMP280;9485;49.386;8.674;2022-10-16T00:22:45;100203.72;;;18.89
18713;BMP280;9485;49.386;8.674;2022-10-16T00:28:05;100187.47;;;18.84
18713;BMP280;9485;49.386;8.674;2022-10-16T00:33:28;100188.84;;;18.90
18713;BMP280;9485;49.386;8.674;2022-10-16T00:38:50;100192.50;;;18.91
18713;BMP280;9485;49.386;8.674;2022-10-16T00:44:43;100195.13;;;18.89
18713;BMP280;9485;49.386;8.674;2022-10-16T00:50:09;100205.25;;;18.90
18713;BMP280;9485;49.386;8.674;2022-10-16T00:55:31;100216.34;;;18.93
18713;BMP280;9485;49.386;8.674;2022-10-16T01:00:52;100219.97;;;18.94
18713;BMP280;9485;49.386;8.674;2022-10-16T01:06:23;100202.44;;;18.97
18713;BMP280;9485;49.386;8.674;2022-10-16T01:11:57;100207.59;;;18.99
18713;BMP280;9485;49.386;8.674;2022-10-16T01:17:30;100207.06;;;19.00
18713;BMP280;9485;49.386;8.674;2022-10-16T01:23:21;100200.38;;;18.98
18713;BMP280;9485;49.386;8.674;2022-10-16T01:28:55;100212.78;;;19.00
18713;BMP280;9485;49.386;8.674;2022-10-16T01:34:21;100213.53;;;19.01
18713;BMP280;9485;49.386;8.674;2022-10-16T01:39:47;100216.84;;;19.05
18713;BMP280;9485;49.386;8.674;2022-10-16T01:45:14;100223.75;;;19.09
18713;BMP280;9485;49.386;8.674;2022-10-16T01:50:41;100216.16;;;19.12
18713;BMP280;9485;49.386;8.674;2022-10-16T01:56:08;100221.66;;;19.10
18713;BMP280;9485;49.386;8.674;2022-10-16T02:01:35;100236.59;;;19.16
18713;BMP280;9485;49.386;8.674;2022-10-16T02:06:57;100240.44;;;19.18
18713;BMP280;9485;49.386;8.674;2022-10-16T02:12:26;100226.91;;;19.19
18713;BMP280;9485;49.386;8.674;2022-10-16T02:17:49;100226.69;;;19.17
18713;BMP280;9485;49.386;8.674;2022-10-16T02:23:18;100240.78;;;19.15
18713;BMP280;9485;49.386;8.674;2022-10-16T02:28:45;100235.63;;;19.13
18713;BMP280;9485;49.386;8.674;2022-10-16T02:34:09;100232.97;;;19.15
18713;BMP280;9485;49.386;8.674;2022-10-16T02:39:32;100212.50;;;19.11
18713;BMP280;9485;49.386;8.674;2022-10-16T02:45:19;100223.38;;;19.13
18713;BMP280;9485;49.386;8.674;2022-10-16T02:50:41;100223.38;;;19.13
18713;BMP280;9485;49.386;8.674;2022-10-16T02:56:02;100218.00;;;19.09
18713;BMP280;9485;49.386;8.674;2022-10-16T03:01:23;100227.50;;;19.04
18713;BMP280;9485;49.386;8.674;2022-10-16T03:06:45;100236.06;;;19.04
18713;BMP280;9485;49.386;8.674;2022-10-16T03:12:06;100251.16;;;19.05
18713;BMP280;9485;49.386;8.674;2022-10-16T03:17:27;100247.97;;;19.08
18713;BMP280;9485;49.386;8.674;2022-10-16T03:22:49;100235.72;;;19.08
18713;BMP280;9485;49.386;8.674;2022-10-16T03:28:10;100243.03;;;19.09
18713;BMP280;9485;49.386;8.674;2022-10-16T03:33:30;100234.97;;;19.07
18713;BMP280;9485;49.386;8.674;2022-10-16T03:38:52;100216.47;;;19.08
18713;BMP280;9485;49.386;8.674;2022-10-16T03:44:13;100214.81;;;19.13
18713;BMP280;9485;49.386;8.674;2022-10-16T03:49:34;100230.66;;;19.14
18713;BMP280;9485;49.386;8.674;2022-10-16T03:54:56;100232.19;;;19.15
18713;BMP280;9485;49.386;8.674;2022-10-16T04:00:16;100238.69;;;19.15
18713;BMP280;9485;49.386;8.674;2022-10-16T04:05:37;100241.34;;;19.13
18713;BMP280;9485;49.386;8.674;2022-10-16T04:10:59;100257.81;;;19.20
18713;BMP280;9485;49.386;8.674;2022-10-16T04:16:20;100253.28;;;19.25
18713;BMP280;9485;49.386;8.674;2022-10-16T04:21:41;100258.44;;;19.26
18713;BMP280;9485;49.386;8.674;2022-10-16T04:27:03;100251.97;;;19.26
18713;BMP280;9485;49.386;8.674;2022-10-16T04:32:24;100275.97;;;19.23
18713;BMP280;9485;49.386;8.674;2022-10-16T04:37:45;100282.78;;;19.20
18713;BMP280;9485;49.386;8.674;2022-10-16T04:43:07;100278.22;;;19.17
18713;BMP280;9485;49.386;8.674;2022-10-16T04:48:28;100258.75;;;19.15
18713;BMP280;9485;49.386;8.674;2022-10-16T04:53:49;100273.19;;;19.10
18713;BMP280;9485;49.386;8.674;2022-10-16T04:59:11;100274.16;;;19.12
18713;BMP280;9485;49.386;8.674;2022-10-16T05:04:32;100274.91;;;19.13
18713;BMP280;9485;49.386;8.674;2022-10-16T05:09:53;100259.09;;;19.12
18713;BMP280;9485;49.386;8.674;2022-10-16T05:15:15;100263.59;;;19.07
18713;BMP280;9485;49.386;8.674;2022-10-16T05:20:35;100287.03;;;19.06
18713;BMP280;9485;49.386;8.674;2022-10-16T05:25:58;100274.41;;;19.01
18713;BMP280;9485;49.386;8.674;2022-10-16T05:31:20;100274.06;;;19.05
18713;BMP280;9485;49.386;8.674;2022-10-16T05:36:40;100256.91;;;19.05
18713;BMP280;9485;49.386;8.674;2022-10-16T05:42:01;100262.75;;;18.99
18713;BMP280;9485;49.386;8.674;2022-10-16T05:47:24;100274.94;;;19.00
18713;BMP280;9485;49.386;8.674;2022-10-16T05:52:44;100283.53;;;19.00
18713;BMP280;9485;49.386;8.674;2022-10-16T05:58:05;100291.44;;;19.07
18713;BMP280;9485;49.386;8.674;2022-10-16T06:03:27;100302.22;;;19.14
18713;BMP280;9485;49.386;8.674;2022-10-16T06:08:49;100301.72;;;19.23
18713;BMP280;9485;49.386;8.674;2022-10-16T06:14:10;100316.09;;;19.30
18713;BMP280;9485;49.386;8.674;2022-10-16T06:19:32;100313.31;;;19.38
18713;BMP280;9485;49.386;8.674;2022-10-16T06:24:53;100294.03;;;19.38
18713;BMP280;9485;49.386;8.674;2022-10-16T06:30:14;100294.38;;;19.35
18713;BMP280;9485;49.386;8.674;2022-10-16T06:35:36;100306.41;;;19.33
18713;BMP280;9485;49.386;8.674;2022-10-16T06:40:57;100314.63;;;19.37
18713;BMP280;9485;49.386;8.674;2022-10-16T06:46:25;100321.78;;;19.43
18713;BMP280;9485;49.386;8.674;2022-10-16T06:51:47;100336.34;;;19.53
18713;BMP280;9485;49.386;8.674;2022-10-16T06:57:08;100328.38;;;19.59
18713;BMP280;9485;49.386;8.674;2022-10-16T07:02:28;100333.19;;;19.63
18713;BMP280;9485;49.386;8.674;2022-10-16T07:07:51;100355.81;;;19.74
18713;BMP280;9485;49.386;8.674;2022-10-16T07:13:12;100372.50;;;19.83
18713;BMP280;9485;49.386;8.674;2022-10-16T07:18:34;100377.19;;;19.94
18713;BMP280;9485;49.386;8.674;2022-10-16T07:23:59;100399.03;;;20.04
18713;BMP280;9485;49.386;8.674;2022-10-16T07:29:21;100393.44;;;20.19
18713;BMP280;9485;49.386;8.674;2022-10-16T07:34:42;100391.97;;;20.33
18713;BMP280;9485;49.386;8.674;2022-10-16T07:40:07;100422.69;;;20.53
18713;BMP280;9485;49.386;8.674;2022-10-16T07:45:27;100422.97;;;20.70
18713;BMP280;9485;49.386;8.674;2022-10-16T07:50:49;100429.22;;;20.89
18713;BMP280;9485;49.386;8.674;2022-10-16T07:56:11;100434.44;;;21.05
18713;BMP280;9485;49.386;8.674;2022-10-16T08:01:32;100442.75;;;21.23
18713;BMP280;9485;49.386;8.674;2022-10-16T08:06:53;100444.13;;;21.37
18713;BMP280;9485;49.386;8.674;2022-10-16T08:12:16;100442.63;;;21.44
18713;BMP280;9485;49.386;8.674;2022-10-16T08:17:36;100446.31;;;21.59
18713;BMP280;9485;49.386;8.674;2022-10-16T08:22:58;100457.84;;;21.74
18713;BMP280;9485;49.386;8.674;2022-10-16T08:28:22;100454.56;;;21.78
18713;BMP280;9485;49.386;8.674;2022-10-16T08:33:44;100447.69;;;21.81
18713;BMP280;9485;49.386;8.674;2022-10-16T08:39:06;100458.41;;;21.80
18713;BMP280;9485;49.386;8.674;2022-10-16T08:45:07;100469.91;;;21.80
18713;BMP280;9485;49.386;8.674;2022-10-16T08:50:31;100479.69;;;21.85
18713;BMP280;9485;49.386;8.674;2022-10-16T08:55:54;100473.75;;;21.90
18713;BMP280;9485;49.386;8.674;2022-10-16T09:01:20;100492.56;;;22.13
18713;BMP280;9485;49.386;8.674;2022-10-16T09:06:50;100503.28;;;22.58
18713;BMP280;9485;49.386;8.674;2022-10-16T09:12:24;100545.25;;;23.05
18713;BMP280;9485;49.386;8.674;2022-10-16T09:17:58;100573.75;;;23.48
18713;BMP280;9485;49.386;8.674;2022-10-16T09:23:27;100571.47;;;23.86
18713;BMP280;9485;49.386;8.674;2022-10-16T09:28:48;100562.31;;;24.04
18713;BMP280;9485;49.386;8.674;2022-10-16T09:34:23;100564.59;;;25.03
18713;BMP280;9485;49.386;8.674;2022-10-16T09:39:46;100569.44;;;25.51
18713;BMP280;9485;49.386;8.674;2022-10-16T09:45:21;100559.31;;;25.43
18713;BMP280;9485;49.386;8.674;2022-10-16T09:50:56;100562.22;;;25.09
18713;BMP280;9485;49.386;8.674;2022-10-16T09:56:23;100562.59;;;24.72
18713;BMP280;9485;49.386;8.674;2022-10-16T10:01:47;100582.41;;;24.51
18713;BMP280;9485;49.386;8.674;2022-10-16T10:07:23;100576.25;;;24.47
18713;BMP280;9485;49.386;8.674;2022-10-16T10:12:45;100575.94;;;24.60
18713;BMP280;9485;49.386;8.674;2022-10-16T10:18:18;100573.31;;;24.79
18713;BMP280;9485;49.386;8.674;2022-10-16T10:23:42;100576.38;;;24.98
18713;BMP280;9485;49.386;8.674;2022-10-16T10:29:06;100562.28;;;25.01
18713;BMP280;9485;49.386;8.674;2022-10-16T10:34:58;100563.38;;;25.06
18713;BMP280;9485;49.386;8.674;2022-10-16T10:40:39;100553.47;;;25.16
18713;BMP280;9485;49.386;8.674;2022-10-16T10:46:05;100560.44;;;25.13
18713;BMP280;9485;49.386;8.674;2022-10-16T10:51:38;100553.50;;;24.92
18713;BMP280;9485;49.386;8.674;2022-10-16T10:57:11;100555.88;;;24.86
18713;BMP280;9485;49.386;8.674;2022-10-16T11:02:41;100562.69;;;24.81
18713;BMP280;9485;49.386;8.674;2022-10-16T11:08:11;100548.31;;;24.74
18713;BMP280;9485;49.386;8.674;2022-10-16T11:13:43;100543.63;;;24.61
18713;BMP280;9485;49.386;8.674;2022-10-16T11:19:26;100549.28;;;24.52
18713;BMP280;9485;49.386;8.674;2022-10-16T11:24:55;100555.16;;;24.61
18713;BMP280;9485;49.386;8.674;2022-10-16T11:30:24;100565.47;;;24.89
18713;BMP280;9485;49.386;8.674;2022-10-16T11:35:52;100556.13;;;25.22
18713;BMP280;9485;49.386;8.674;2022-10-16T11:41:24;100538.34;;;25.42
18713;BMP280;9485;49.386;8.674;2022-10-16T11:46:59;100537.78;;;25.96
18713;BMP280;9485;49.386;8.674;2022-10-16T11:52:30;100549.19;;;27.68
18713;BMP280;9485;49.386;8.674;2022-10-16T11:57:57;100556.38;;;27.67
18713;BMP280;9485;49.386;8.674;2022-10-16T12:03:27;100565.97;;;27.60
18713;BMP280;9485;49.386;8.674;2022-10-16T12:08:49;100563.78;;;28.57
18713;BMP280;9485;49.386;8.674;2022-10-16T12:14:32;100564.28;;;28.74
18713;BMP280;9485;49.386;8.674;2022-10-16T12:20:01;100566.22;;;28.20
18713;BMP280;9485;49.386;8.674;2022-10-16T12:25:36;100556.53;;;27.59
18713;BMP280;9485;49.386;8.674;2022-10-16T12:31:01;100538.38;;;27.02
18713;BMP280;9485;49.386;8.674;2022-10-16T12:36:31;100536.00;;;26.72
18713;BMP280;9485;49.386;8.674;2022-10-16T12:42:05;100525.94;;;26.73
18713;BMP280;9485;49.386;8.674;2022-10-16T12:47:46;100524.72;;;26.76
18713;BMP280;9485;49.386;8.674;2022-10-16T12:53:20;100530.47;;;26.67
18713;BMP280;9485;49.386;8.674;2022-10-16T12:59:04;100514.72;;;26.42
18713;BMP280;9485;49.386;8.674;2022-10-16T13:05:04;100525.94;;;26.73
18713;BMP280;9485;49.386;8.674;2022-10-16T13:10:39;100532.94;;;26.80
18713;BMP280;9485;49.386;8.674;2022-10-16T13:16:14;100548.34;;;26.73
18713;BMP280;9485;49.386;8.674;2022-10-16T13:21:48;100545.66;;;26.49
18713;BMP280;9485;49.386;8.674;2022-10-16T13:27:20;100553.34;;;26.27
18713;BMP280;9485;49.386;8.674;2022-10-16T13:32:46;100556.97;;;25.92
18713;BMP280;9485;49.386;8.674;2022-10-16T13:38:14;100556.69;;;25.54
18713;BMP280;9485;49.386;8.674;2022-10-16T13:43:41;100564.69;;;25.29
18713;BMP280;9485;49.386;8.674;2022-10-16T13:49:06;100553.75;;;25.11
18713;BMP280;9485;49.386;8.674;2022-10-16T13:54:31;100548.84;;;24.97
18713;BMP280;9485;49.386;8.674;2022-10-16T13:59:54;100543.56;;;24.86
18713;BMP280;9485;49.386;8.674;2022-10-16T14:05:15;100542.19;;;24.70
18713;BMP280;9485;49.386;8.674;2022-10-16T14:10:35;100540.78;;;24.54
18713;BMP280;9485;49.386;8.674;2022-10-16T14:16:06;100549.34;;;24.44
18713;BMP280;9485;49.386;8.674;2022-10-16T14:21:28;100529.00;;;24.35
18713;BMP280;9485;49.386;8.674;2022-10-16T14:26:49;100559.44;;;24.28
18713;BMP280;9485;49.386;8.674;2022-10-16T14:32:26;100561.78;;;24.23
18713;BMP280;9485;49.386;8.674;2022-10-16T14:37:53;100555.31;;;24.15
18713;BMP280;9485;49.386;8.674;2022-10-16T14:43:20;100564.63;;;24.06
18713;BMP280;9485;49.386;8.674;2022-10-16T14:48:46;100555.88;;;23.89
18713;BMP280;9485;49.386;8.674;2022-10-16T14:54:09;100544.03;;;23.77
18713;BMP280;9485;49.386;8.674;2022-10-16T14:59:33;100555.97;;;23.66
18713;BMP280;9485;49.386;8.674;2022-10-16T15:04:58;100559.06;;;23.68
18713;BMP280;9485;49.386;8.674;2022-10-16T15:10:24;100549.38;;;23.81
18713;BMP280;9485;49.386;8.674;2022-10-16T15:15:47;100552.91;;;24.04
18713;BMP280;9485;49.386;8.674;2022-10-16T15:21:24;100550.44;;;24.24
18713;BMP280;9485;49.386;8.674;2022-10-16T15:26:45;100565.22;;;24.28
18713;BMP280;9485;49.386;8.674;2022-10-16T15:32:06;100563.00;;;24.20
18713;BMP280;9485;49.386;8.674;2022-10-16T15:37:30;100564.22;;;24.09
18713;BMP280;9485;49.386;8.674;2022-10-16T15:42:50;100558.53;;;23.94
18713;BMP280;9485;49.386;8.674;2022-10-16T15:48:12;100561.84;;;23.83
18713;BMP280;9485;49.386;8.674;2022-10-16T15:53:34;100562.09;;;23.70
18713;BMP280;9485;49.386;8.674;2022-10-16T15:58:55;100563.31;;;23.60
18713;BMP280;9485;49.386;8.674;2022-10-16T16:04:17;100563.75;;;23.49
18713;BMP280;9485;49.386;8.674;2022-10-16T16:09:40;100566.69;;;23.34
18713;BMP280;9485;49.386;8.674;2022-10-16T16:15:00;100574.63;;;23.19
18713;BMP280;9485;49.386;8.674;2022-10-16T16:20:21;100578.28;;;22.97
18713;BMP280;9485;49.386;8.674;2022-10-16T16:25:43;100575.44;;;22.74
18713;BMP280;9485;49.386;8.674;2022-10-16T16:31:06;100577.56;;;22.52
18713;BMP280;9485;49.386;8.674;2022-10-16T16:36:31;100565.41;;;22.23
18713;BMP280;9485;49.386;8.674;2022-10-16T16:41:55;100577.47;;;22.07
18713;BMP280;9485;49.386;8.674;2022-10-16T16:47:17;100571.09;;;21.86
18713;BMP280;9485;49.386;8.674;2022-10-16T16:52:37;100568.38;;;21.66
18713;BMP280;9485;49.386;8.674;2022-10-16T16:58:00;100570.75;;;21.47
18713;BMP280;9485;49.386;8.674;2022-10-16T17:03:22;100578.16;;;21.27
18713;BMP280;9485;49.386;8.674;2022-10-16T17:08:43;100588.97;;;21.14
18713;BMP280;9485;49.386;8.674;2022-10-16T17:14:08;100597.44;;;21.19
18713;BMP280;9485;49.386;8.674;2022-10-16T17:19:29;100594.22;;;21.30
18713;BMP280;9485;49.386;8.674;2022-10-16T17:24:50;100601.19;;;21.42
18713;BMP280;9485;49.386;8.674;2022-10-16T17:30:14;100598.56;;;21.52
18713;BMP280;9485;49.386;8.674;2022-10-16T17:35:40;100605.13;;;21.60
18713;BMP280;9485;49.386;8.674;2022-10-16T17:41:11;100609.16;;;21.64
18713;BMP280;9485;49.386;8.674;2022-10-16T17:46:33;100608.41;;;21.71
18713;BMP280;9485;49.386;8.674;2022-10-16T17:51:55;100606.13;;;21.70
18713;BMP280;9485;49.386;8.674;2022-10-16T17:57:16;100613.03;;;21.74
18713;BMP280;9485;49.386;8.674;2022-10-16T18:02:38;100610.31;;;21.69
18713;BMP280;9485;49.386;8.674;2022-10-16T18:08:08;100606.84;;;21.55
18713;BMP280;9485;49.386;8.674;2022-10-16T18:13:34;100591.53;;;21.25
18713;BMP280;9485;49.386;8.674;2022-10-16T18:18:58;100617.19;;;21.23
18713;BMP280;9485;49.386;8.674;2022-10-16T18:24:19;100611.53;;;21.10
18713;BMP280;9485;49.386;8.674;2022-10-16T18:29:40;100617.94;;;21.23
18713;BMP280;9485;49.386;8.674;2022-10-16T18:35:03;100617.88;;;21.51
18713;BMP280;9485;49.386;8.674;2022-10-16T18:40:24;100611.72;;;21.83
18713;BMP280;9485;49.386;8.674;2022-10-16T18:45:54;100612.78;;;22.15
18713;BMP280;9485;49.386;8.674;2022-10-16T18:51:24;100618.97;;;22.34
18713;BMP280;9485;49.386;8.674;2022-10-16T18:56:45;100626.84;;;22.56
18713;BMP280;9485;49.386;8.674;2022-10-16T19:02:11;100621.09;;;22.70
18713;BMP280;9485;49.386;8.674;2022-10-16T19:07:33;100631.25;;;22.79
18713;BMP280;9485;49.386;8.674;2022-10-16T19:12:54;100629.00;;;22.85
18713;BMP280;9485;49.386;8.674;2022-10-16T19:18:14;100633.78;;;22.90
18713;BMP280;9485;49.386;8.674;2022-10-16T19:23:37;100635.13;;;22.89
18713;BMP280;9485;49.386;8.674;2022-10-16T19:29:00;100640.13;;;22.88
18713;BMP280;9485;49.386;8.674;2022-10-16T19:34:22;100646.81;;;22.83
18713;BMP280;9485;49.386;8.674;2022-10-16T19:39:44;100645.50;;;22.77
18713;BMP280;9485;49.386;8.674;2022-10-16T19:45:07;100650.06;;;22.65
18713;BMP280;9485;49.386;8.674;2022-10-16T19:50:28;100654.88;;;22.55
18713;BMP280;9485;49.386;8.674;2022-10-16T19:55:50;100662.53;;;22.45
18713;BMP280;9485;49.386;8.674;2022-10-16T20:01:13;100661.00;;;22.37
18713;BMP280;9485;49.386;8.674;2022-10-16T20:06:34;100668.22;;;22.23
18713;BMP280;9485;49.386;8.674;2022-10-16T20:11:56;100676.09;;;22.22
18713;BMP280;9485;49.386;8.674;2022-10-16T20:17:16;100682.81;;;22.25
18713;BMP280;9485;49.386;8.674;2022-10-16T20:22:37;100686.22;;;22.23
18713;BMP280;9485;49.386;8.674;2022-10-16T20:27:59;100694.69;;;22.29
18713;BMP280;9485;49.386;8.674;2022-10-16T20:33:20;100695.13;;;22.48
18713;BMP280;9485;49.386;8.674;2022-10-16T20:38:42;100712.84;;;22.67
18713;BMP280;9485;49.386;8.674;2022-10-16T20:44:04;100703.84;;;22.70
18713;BMP280;9485;49.386;8.674;2022-10-16T20:49:26;100723.22;;;22.77
18713;BMP280;9485;49.386;8.674;2022-10-16T20:54:47;100741.28;;;22.85
18713;BMP280;9485;49.386;8.674;2022-10-16T21:00:11;100736.66;;;22.89
18713;BMP280;9485;49.386;8.674;2022-10-16T21:05:32;100745.91;;;22.95
18713;BMP280;9485;49.386;8.674;2022-10-16T21:10:53;100745.91;;;22.95
18713;BMP280;9485;49.386;8.674;2022-10-16T21:16:17;100756.06;;;22.96
18713;BMP280;9485;49.386;8.674;2022-10-16T21:21:38;100757.59;;;22.97
18713;BMP280;9485;49.386;8.674;2022-10-16T21:26:59;100767.41;;;22.94
18713;BMP280;9485;49.386;8.674;2022-10-16T21:32:21;100768.31;;;22.89
18713;BMP280;9485;49.386;8.674;2022-10-16T21:37:42;100767.00;;;22.83
18713;BMP280;9485;49.386;8.674;2022-10-16T21:43:07;100780.44;;;22.80
18713;BMP280;9485;49.386;8.674;2022-10-16T21:48:30;100772.34;;;22.71
18713;BMP280;9485;49.386;8.674;2022-10-16T21:53:51;100774.59;;;22.58
18713;BMP280;9485;49.386;8.674;2022-10-16T21:59:13;100762.44;;;22.37
18713;BMP280;9485;49.386;8.674;2022-10-16T22:04:35;100763.66;;;22.14
18713;BMP280;9485;49.386;8.674;2022-10-16T22:09:55;100768.72;;;21.86
18713;BMP280;9485;49.386;8.674;2022-10-16T22:15:17;100777.91;;;21.56
18713;BMP280;9485;49.386;8.674;2022-10-16T22:20:44;100778.00;;;21.23
18713;BMP280;9485;49.386;8.674;2022-10-16T22:26:08;100784.53;;;21.03
18713;BMP280;9485;49.386;8.674;2022-10-16T22:31:29;100792.38;;;20.82
18713;BMP280;9485;49.386;8.674;2022-10-16T22:36:51;100783.69;;;20.62
18713;BMP280;9485;49.386;8.674;2022-10-16T22:42:12;100788.84;;;20.43
18713;BMP280;9485;49.386;8.674;2022-10-16T22:47:33;100789.22;;;20.27
18713;BMP280;9485;49.386;8.674;2022-10-16T22:52:57;100796.41;;;20.07
18713;BMP280;9485;49.386;8.674;2022-10-16T22:58:18;100793.31;;;19.92
18713;BMP280;9485;49.386;8.674;2022-10-16T23:03:39;100789.47;;;19.77
18713;BMP280;9485;49.386;8.674;2022-10-16T23:09:01;100794.72;;;19.60
18713;BMP280;9485;49.386;8.674;2022-10-16T23:14:23;100798.91;;;19.46
18713;BMP280;9485;49.386;8.674;2022-10-16T23:19:43;100801.97;;;19.35
18713;BMP280;9485;49.386;8.674;2022-10-16T23:25:06;100805.59;;;19.23
18713;BMP280;9485;49.386;8.674;2022-10-16T23:30:27;100820.63;;;19.10
18713;BMP280;9485;49.386;8.674;2022-10-16T23:35:48;100827.06;;;18.98
18713;BMP280;9485;49.386;8.674;2022-10-16T23:41:12;100829.84;;;18.85
18713;BMP280;9485;49.386;8.674;2022-10-16T23:46:33;100831.59;;;18.75
18713;BMP280;9485;49.386;8.674;2022-10-16T23:51:54;100842.09;;;18.67
18713;BMP280;9485;49.386;8.674;2022-10-16T23:57:16;100837.00;;;18.60
